sensor_id;sensor_type;location;lat;lon;timestamp;temperature;humidity
19878;DHT22;10101;52.204;9.910;2023-09-19T00:00:16;15.30;99.90
19878;DHT22;10101;52.204;9.910;2023-09-19T00:02:46;15.40;99.90
19878;DHT22;10101;52.204;9.910;2023-09-19T00:05:13;15.40;99.90
19878;DHT22;10101;52.204;9.910;2023-09-19T00:07:40;15.40;99.90
19878;DHT22;10101;52.204;9.910;2023-09-19T00:10:07;15.40;99.90
19878;DHT22;10101;52.204;9.910;2023-09-19T00:12:35;15.40;99.90
19878;DHT22;10101;52.204;9.910;2023-09-19T00:15:02;15.50;99.90
19878;DHT22;10101;52.204;9.910;2023-09-19T00:17:29;15.60;1.00
19878;DHT22;10101;52.204;9.910;2023-09-19T00:19:58;15.70;1.00
19878;DHT22;10101;52.204;9.910;2023-09-19T00:22:32;15.60;1.00
19878;DHT22;10101;52.204;9.910;2023-09-19T00:24:59;15.50;1.00
19878;DHT22;10101;52.204;9.910;2023-09-19T00:27:26;15.60;1.00
19878;DHT22;10101;52.204;9.910;2023-09-19T00:29:53;15.80;99.90
19878;DHT22;10101;52.204;9.910;2023-09-19T00:32:20;15.80;99.90
19878;DHT22;10101;52.204;9.910;2023-09-19T00:34:47;15.80;99.90
19878;DHT22;10101;52.204;9.910;2023-09-19T00:37:15;15.80;1.00
19878;DHT22;10101;52.204;9.910;2023-09-19T00:39:43;15.60;1.00
19878;DHT22;10101;52.204;9.910;2023-09-19T00:42:18;15.60;1.00
19878;DHT22;10101;52.204;9.910;2023-09-19T00:44:46;15.70;99.90
19878;DHT22;10101;52.204;9.910;2023-09-19T00:47:13;15.70;1.00
19878;DHT22;10101;52.204;9.910;2023-09-19T00:49:43;15.50;99.90
19878;DHT22;10101;52.204;9.910;2023-09-19T00:52:10;15.50;99.90
19878;DHT22;10101;52.204;9.910;2023-09-19T00:54:39;15.70;1.00
19878;DHT22;10101;52.204;9.910;2023-09-19T00:57:06;15.70;68.30
19878;DHT22;10101;52.204;9.910;2023-09-19T00:59:33;15.90;99.90
19878;DHT22;10101;52.204;9.910;2023-09-19T01:02:01;15.90;1.00
19878;DHT22;10101;52.204;9.910;2023-09-19T01:04:28;15.90;99.90
19878;DHT22;10101;52.204;9.910;2023-09-19T01:06:55;15.80;99.90
19878;DHT22;10101;52.204;9.910;2023-09-19T01:09:24;15.80;52.30
19878;DHT22;10101;52.204;9.910;2023-09-19T01:11:59;15.70;86.50
19878;DHT22;10101;52.204;9.910;2023-09-19T01:14:34;15.80;1.00
19878;DHT22;10101;52.204;9.910;2023-09-19T01:17:05;15.80;99.90
19878;DHT22;10101;52.204;9.910;2023-09-19T01:20:09;15.70;99.90
19878;DHT22;10101;52.204;9.910;2023-09-19T01:22:46;15.70;1.00
19878;DHT22;10101;52.204;9.910;2023-09-19T01:28:31;15.60;1.00
19878;DHT22;10101;52.204;9.910;2023-09-19T01:31:04;15.60;1.00
19878;DHT22;10101;52.204;9.910;2023-09-19T01:33:56;15.60;1.00
19878;DHT22;10101;52.204;9.910;2023-09-19T01:36:28;15.60;1.00
19878;DHT22;10101;52.204;9.910;2023-09-19T01:38:55;15.60;1.00
19878;DHT22;10101;52.204;9.910;2023-09-19T01:41:30;15.60;99.90
19878;DHT22;10101;52.204;9.910;2023-09-19T01:44:02;15.80;99.90
19878;DHT22;10101;52.204;9.910;2023-09-19T01:46:34;15.90;1.00
19878;DHT22;10101;52.204;9.910;2023-09-19T01:49:10;15.80;1.00
19878;DHT22;10101;52.204;9.910;2023-09-19T01:51:45;15.90;99.90
19878;DHT22;10101;52.204;9.910;2023-09-19T01:54:16;15.80;93.30
19878;DHT22;10101;52.204;9.910;2023-09-19T01:56:50;15.90;1.00
19878;DHT22;10101;52.204;9.910;2023-09-19T01:59:23;16.10;1.00
19878;DHT22;10101;52.204;9.910;2023-09-19T02:01:54;16.10;99.90
19878;DHT22;10101;52.204;9.910;2023-09-19T02:04:21;16.00;99.90
19878;DHT22;10101;52.204;9.910;2023-09-19T02:06:48;16.00;99.90
19878;DHT22;10101;52.204;9.910;2023-09-19T02:09:17;16.00;46.80
19878;DHT22;10101;52.204;9.910;2023-09-19T02:11:43;16.00;1.00
19878;DHT22;10101;52.204;9.910;2023-09-19T02:14:10;15.90;1.00
19878;DHT22;10101;52.204;9.910;2023-09-19T02:16:37;15.90;1.00
19878;DHT22;10101;52.204;9.910;2023-09-19T02:19:05;16.00;1.00
19878;DHT22;10101;52.204;9.910;2023-09-19T02:21:33;16.20;1.00
19878;DHT22;10101;52.204;9.910;2023-09-19T02:24:00;16.20;1.00
19878;DHT22;10101;52.204;9.910;2023-09-19T02:26:28;16.10;1.00
19878;DHT22;10101;52.204;9.910;2023-09-19T02:28:55;16.10;99.90
19878;DHT22;10101;52.204;9.910;2023-09-19T02:31:21;16.10;99.90
19878;DHT22;10101;52.204;9.910;2023-09-19T02:33:48;16.00;99.90
19878;DHT22;10101;52.204;9.910;2023-09-19T02:36:16;16.10;99.90
19878;DHT22;10101;52.204;9.910;2023-09-19T02:38:44;16.10;99.90
19878;DHT22;10101;52.204;9.910;2023-09-19T02:41:11;16.10;99.90
19878;DHT22;10101;52.204;9.910;2023-09-19T02:43:37;16.10;99.90
19878;DHT22;10101;52.204;9.910;2023-09-19T02:46:04;16.10;99.90
19878;DHT22;10101;52.204;9.910;2023-09-19T02:48:32;16.20;99.90
19878;DHT22;10101;52.204;9.910;2023-09-19T02:51:00;16.00;99.90
19878;DHT22;10101;52.204;9.910;2023-09-19T02:53:28;16.20;99.90
19878;DHT22;10101;52.204;9.910;2023-09-19T02:55:56;15.90;1.00
19878;DHT22;10101;52.204;9.910;2023-09-19T02:58:24;15.80;1.00
19878;DHT22;10101;52.204;9.910;2023-09-19T03:00:53;15.80;1.00
19878;DHT22;10101;52.204;9.910;2023-09-19T03:03:20;15.80;1.00
19878;DHT22;10101;52.204;9.910;2023-09-19T03:05:48;15.70;1.00
19878;DHT22;10101;52.204;9.910;2023-09-19T03:08:17;15.70;1.00
19878;DHT22;10101;52.204;9.910;2023-09-19T03:10:47;15.70;1.00
19878;DHT22;10101;52.204;9.910;2023-09-19T03:13:14;15.70;1.00
19878;DHT22;10101;52.204;9.910;2023-09-19T03:15:41;15.70;1.00
19878;DHT22;10101;52.204;9.910;2023-09-19T03:18:09;15.70;1.00
19878;DHT22;10101;52.204;9.910;2023-09-19T03:20:36;15.70;1.00
19878;DHT22;10101;52.204;9.910;2023-09-19T03:23:04;15.70;1.00
19878;DHT22;10101;52.204;9.910;2023-09-19T03:25:33;15.50;21.30
19878;DHT22;10101;52.204;9.910;2023-09-19T03:28:01;15.50;1.60
19878;DHT22;10101;52.204;9.910;2023-09-19T03:30:31;15.50;74.20
19878;DHT22;10101;52.204;9.910;2023-09-19T03:32:59;15.50;38.10
19878;DHT22;10101;52.204;9.910;2023-09-19T03:35:26;15.60;99.90
19878;DHT22;10101;52.204;9.910;2023-09-19T03:37:53;15.60;99.90
19878;DHT22;10101;52.204;9.910;2023-09-19T03:40:20;15.60;88.90
19878;DHT22;10101;52.204;9.910;2023-09-19T03:42:48;15.70;99.90
19878;DHT22;10101;52.204;9.910;2023-09-19T03:45:17;15.60;99.90
19878;DHT22;10101;52.204;9.910;2023-09-19T03:47:43;15.60;1.00
19878;DHT22;10101;52.204;9.910;2023-09-19T03:50:12;15.50;1.00
19878;DHT22;10101;52.204;9.910;2023-09-19T03:52:41;15.20;1.00
19878;DHT22;10101;52.204;9.910;2023-09-19T03:55:08;15.40;1.00
19878;DHT22;10101;52.204;9.910;2023-09-19T03:57:35;15.30;1.00
19878;DHT22;10101;52.204;9.910;2023-09-19T04:00:02;15.30;1.00
19878;DHT22;10101;52.204;9.910;2023-09-19T04:02:31;15.30;1.00
19878;DHT22;10101;52.204;9.910;2023-09-19T04:04:59;15.30;1.00
19878;DHT22;10101;52.204;9.910;2023-09-19T04:07:25;15.20;1.00
19878;DHT22;10101;52.204;9.910;2023-09-19T04:09:54;15.10;1.00
19878;DHT22;10101;52.204;9.910;2023-09-19T04:12:21;15.10;1.00
19878;DHT22;10101;52.204;9.910;2023-09-19T04:14:47;15.10;1.00
19878;DHT22;10101;52.204;9.910;2023-09-19T04:17:15;15.20;1.00
19878;DHT22;10101;52.204;9.910;2023-09-19T04:19:43;15.10;1.00
19878;DHT22;10101;52.204;9.910;2023-09-19T04:22:11;15.00;1.00
19878;DHT22;10101;52.204;9.910;2023-09-19T04:24:38;15.10;1.00
19878;DHT22;10101;52.204;9.910;2023-09-19T04:27:05;15.00;1.00
19878;DHT22;10101;52.204;9.910;2023-09-19T04:29:32;14.90;1.00
19878;DHT22;10101;52.204;9.910;2023-09-19T04:31:59;14.90;1.00
19878;DHT22;10101;52.204;9.910;2023-09-19T04:34:26;14.90;1.00
19878;DHT22;10101;52.204;9.910;2023-09-19T04:36:54;14.90;1.00
19878;DHT22;10101;52.204;9.910;2023-09-19T04:39:24;14.80;1.00
19878;DHT22;10101;52.204;9.910;2023-09-19T04:41:51;14.80;1.00
19878;DHT22;10101;52.204;9.910;2023-09-19T04:44:18;14.70;1.00
19878;DHT22;10101;52.204;9.910;2023-09-19T04:46:45;14.70;1.00
19878;DHT22;10101;52.204;9.910;2023-09-19T04:49:12;14.70;1.00
19878;DHT22;10101;52.204;9.910;2023-09-19T04:51:39;14.70;1.00
19878;DHT22;10101;52.204;9.910;2023-09-19T04:54:09;14.70;1.00
19878;DHT22;10101;52.204;9.910;2023-09-19T04:56:36;14.70;1.00
19878;DHT22;10101;52.204;9.910;2023-09-19T04:59:06;14.60;1.00
19878;DHT22;10101;52.204;9.910;2023-09-19T05:01:33;14.60;1.00
19878;DHT22;10101;52.204;9.910;2023-09-19T05:03:58;14.80;1.00
19878;DHT22;10101;52.204;9.910;2023-09-19T05:06:25;14.70;1.00
19878;DHT22;10101;52.204;9.910;2023-09-19T05:08:53;14.80;1.00
19878;DHT22;10101;52.204;9.910;2023-09-19T05:11:21;14.90;5.00
19878;DHT22;10101;52.204;9.910;2023-09-19T05:13:48;14.80;1.00
19878;DHT22;10101;52.204;9.910;2023-09-19T05:16:15;14.80;1.00
19878;DHT22;10101;52.204;9.910;2023-09-19T05:18:42;14.90;7.60
19878;DHT22;10101;52.204;9.910;2023-09-19T05:21:09;14.80;1.00
19878;DHT22;10101;52.204;9.910;2023-09-19T05:23:35;14.70;1.00
19878;DHT22;10101;52.204;9.910;2023-09-19T05:26:02;14.70;1.00
19878;DHT22;10101;52.204;9.910;2023-09-19T05:28:32;14.70;1.00
19878;DHT22;10101;52.204;9.910;2023-09-19T05:31:01;14.70;1.00
19878;DHT22;10101;52.204;9.910;2023-09-19T05:33:28;14.70;1.00
19878;DHT22;10101;52.204;9.910;2023-09-19T05:35:57;14.70;1.00
19878;DHT22;10101;52.204;9.910;2023-09-19T05:38:24;14.70;1.00
19878;DHT22;10101;52.204;9.910;2023-09-19T05:40:52;14.80;34.20
19878;DHT22;10101;52.204;9.910;2023-09-19T05:43:19;14.80;59.40
19878;DHT22;10101;52.204;9.910;2023-09-19T05:45:47;14.70;1.00
19878;DHT22;10101;52.204;9.910;2023-09-19T05:48:15;14.80;99.90
19878;DHT22;10101;52.204;9.910;2023-09-19T05:50:42;14.80;99.90
19878;DHT22;10101;52.204;9.910;2023-09-19T05:53:09;14.70;31.80
19878;DHT22;10101;52.204;9.910;2023-09-19T05:55:37;14.70;18.40
19878;DHT22;10101;52.204;9.910;2023-09-19T05:58:04;14.70;1.00
19878;DHT22;10101;52.204;9.910;2023-09-19T06:00:31;14.60;1.00
19878;DHT22;10101;52.204;9.910;2023-09-19T06:02:59;14.70;1.00
19878;DHT22;10101;52.204;9.910;2023-09-19T06:05:27;14.70;1.00
19878;DHT22;10101;52.204;9.910;2023-09-19T06:07:55;14.80;1.00
19878;DHT22;10101;52.204;9.910;2023-09-19T06:10:25;14.80;1.00
19878;DHT22;10101;52.204;9.910;2023-09-19T06:12:54;14.90;22.80
19878;DHT22;10101;52.204;9.910;2023-09-19T06:15:23;15.00;99.90
19878;DHT22;10101;52.204;9.910;2023-09-19T06:17:52;15.10;99.90
19878;DHT22;10101;52.204;9.910;2023-09-19T06:20:22;15.10;1.00
19878;DHT22;10101;52.204;9.910;2023-09-19T06:22:50;15.00;99.90
19878;DHT22;10101;52.204;9.910;2023-09-19T06:25:18;14.90;99.90
19878;DHT22;10101;52.204;9.910;2023-09-19T06:27:45;14.90;1.00
19878;DHT22;10101;52.204;9.910;2023-09-19T06:30:12;14.90;1.00
19878;DHT22;10101;52.204;9.910;2023-09-19T06:32:39;15.00;1.00
19878;DHT22;10101;52.204;9.910;2023-09-19T06:35:09;15.00;19.40
19878;DHT22;10101;52.204;9.910;2023-09-19T06:37:38;15.10;1.00
19878;DHT22;10101;52.204;9.910;2023-09-19T06:40:07;14.90;16.70
19878;DHT22;10101;52.204;9.910;2023-09-19T06:42:39;15.00;1.00
19878;DHT22;10101;52.204;9.910;2023-09-19T06:45:07;15.10;1.00
19878;DHT22;10101;52.204;9.910;2023-09-19T06:47:34;15.00;11.90
19878;DHT22;10101;52.204;9.910;2023-09-19T06:50:02;15.10;38.80
19878;DHT22;10101;52.204;9.910;2023-09-19T06:52:30;15.10;99.90
19878;DHT22;10101;52.204;9.910;2023-09-19T06:54:59;15.10;97.30
19878;DHT22;10101;52.204;9.910;2023-09-19T06:57:26;15.10;3.90
19878;DHT22;10101;52.204;9.910;2023-09-19T06:59:52;15.10;99.90
19878;DHT22;10101;52.204;9.910;2023-09-19T07:02:19;15.10;99.90
19878;DHT22;10101;52.204;9.910;2023-09-19T07:04:47;15.20;99.90
19878;DHT22;10101;52.204;9.910;2023-09-19T07:07:14;15.20;99.90
19878;DHT22;10101;52.204;9.910;2023-09-19T07:09:41;15.20;99.90
19878;DHT22;10101;52.204;9.910;2023-09-19T07:12:10;15.20;88.10
19878;DHT22;10101;52.204;9.910;2023-09-19T07:14:37;15.20;99.90
19878;DHT22;10101;52.204;9.910;2023-09-19T07:17:04;15.40;99.90
19878;DHT22;10101;52.204;9.910;2023-09-19T07:19:30;15.40;99.90
19878;DHT22;10101;52.204;9.910;2023-09-19T07:21:57;15.40;99.90
19878;DHT22;10101;52.204;9.910;2023-09-19T07:24:28;15.50;99.90
19878;DHT22;10101;52.204;9.910;2023-09-19T07:26:55;15.60;10.70
19878;DHT22;10101;52.204;9.910;2023-09-19T07:29:23;15.60;99.90
19878;DHT22;10101;52.204;9.910;2023-09-19T07:31:51;15.70;99.90
19878;DHT22;10101;52.204;9.910;2023-09-19T07:34:18;15.70;99.90
19878;DHT22;10101;52.204;9.910;2023-09-19T07:36:46;15.80;1.00
19878;DHT22;10101;52.204;9.910;2023-09-19T07:39:13;15.70;1.00
19878;DHT22;10101;52.204;9.910;2023-09-19T07:41:39;15.70;99.90
19878;DHT22;10101;52.204;9.910;2023-09-19T07:44:08;15.70;99.90
19878;DHT22;10101;52.204;9.910;2023-09-19T07:46:37;15.80;99.90
19878;DHT22;10101;52.204;9.910;2023-09-19T07:49:04;15.80;1.00
19878;DHT22;10101;52.204;9.910;2023-09-19T07:51:30;15.80;1.00
19878;DHT22;10101;52.204;9.910;2023-09-19T07:53:58;15.90;1.00
19878;DHT22;10101;52.204;9.910;2023-09-19T07:56:25;16.00;1.00
19878;DHT22;10101;52.204;9.910;2023-09-19T07:58:53;16.00;1.00
19878;DHT22;10101;52.204;9.910;2023-09-19T08:01:20;15.90;1.00
19878;DHT22;10101;52.204;9.910;2023-09-19T08:03:50;15.90;1.00
19878;DHT22;10101;52.204;9.910;2023-09-19T08:06:17;15.90;1.00
19878;DHT22;10101;52.204;9.910;2023-09-19T08:08:44;15.90;1.00
19878;DHT22;10101;52.204;9.910;2023-09-19T08:11:11;15.90;99.90
19878;DHT22;10101;52.204;9.910;2023-09-19T08:13:38;15.90;99.90
19878;DHT22;10101;52.204;9.910;2023-09-19T08:16:08;15.90;1.00
19878;DHT22;10101;52.204;9.910;2023-09-19T08:18:35;16.00;1.00
19878;DHT22;10101;52.204;9.910;2023-09-19T08:21:03;15.90;1.00
19878;DHT22;10101;52.204;9.910;2023-09-19T08:23:30;15.90;1.00
19878;DHT22;10101;52.204;9.910;2023-09-19T08:25:57;16.00;1.00
19878;DHT22;10101;52.204;9.910;2023-09-19T08:28:27;16.00;1.00
19878;DHT22;10101;52.204;9.910;2023-09-19T08:30:55;16.10;1.00
19878;DHT22;10101;52.204;9.910;2023-09-19T08:33:23;16.20;1.00
19878;DHT22;10101;52.204;9.910;2023-09-19T08:35:50;16.30;1.00
19878;DHT22;10101;52.204;9.910;2023-09-19T08:38:18;16.40;1.00
19878;DHT22;10101;52.204;9.910;2023-09-19T08:40:45;16.70;1.00
19878;DHT22;10101;52.204;9.910;2023-09-19T08:43:12;16.80;1.00
19878;DHT22;10101;52.204;9.910;2023-09-19T08:45:39;16.70;54.40
19878;DHT22;10101;52.204;9.910;2023-09-19T08:48:17;16.60;16.60
19878;DHT22;10101;52.204;9.910;2023-09-19T08:50:49;16.60;1.00
19878;DHT22;10101;52.204;9.910;2023-09-19T08:53:26;16.70;1.00
19878;DHT22;10101;52.204;9.910;2023-09-19T08:55:55;16.90;1.00
19878;DHT22;10101;52.204;9.910;2023-09-19T08:58:26;16.80;17.40
19878;DHT22;10101;52.204;9.910;2023-09-19T09:00:55;16.90;3.40
19878;DHT22;10101;52.204;9.910;2023-09-19T09:03:23;16.80;97.30
19878;DHT22;10101;52.204;9.910;2023-09-19T09:05:51;16.70;32.10
19878;DHT22;10101;52.204;9.910;2023-09-19T09:08:20;16.80;1.00
19878;DHT22;10101;52.204;9.910;2023-09-19T09:10:48;17.10;1.00
19878;DHT22;10101;52.204;9.910;2023-09-19T09:13:17;17.00;83.40
19878;DHT22;10101;52.204;9.910;2023-09-19T09:15:44;17.00;28.30
19878;DHT22;10101;52.204;9.910;2023-09-19T09:18:11;17.10;1.00
19878;DHT22;10101;52.204;9.910;2023-09-19T09:20:38;17.00;1.00
19878;DHT22;10101;52.204;9.910;2023-09-19T09:23:05;17.00;1.00
19878;DHT22;10101;52.204;9.910;2023-09-19T09:25:52;16.90;25.10
19878;DHT22;10101;52.204;9.910;2023-09-19T09:28:23;17.00;3.60
19878;DHT22;10101;52.204;9.910;2023-09-19T09:30:50;17.00;89.80
19878;DHT22;10101;52.204;9.910;2023-09-19T09:33:17;17.00;99.90
19878;DHT22;10101;52.204;9.910;2023-09-19T09:35:48;17.10;99.90
19878;DHT22;10101;52.204;9.910;2023-09-19T09:38:17;17.20;99.90
19878;DHT22;10101;52.204;9.910;2023-09-19T09:40:48;17.30;1.00
19878;DHT22;10101;52.204;9.910;2023-09-19T09:43:29;17.30;99.90
19878;DHT22;10101;52.204;9.910;2023-09-19T09:46:12;17.30;99.90
19878;DHT22;10101;52.204;9.910;2023-09-19T09:48:57;17.50;88.50
19878;DHT22;10101;52.204;9.910;2023-09-19T09:51:38;17.50;99.90
19878;DHT22;10101;52.204;9.910;2023-09-19T09:54:12;17.40;99.90
19878;DHT22;10101;52.204;9.910;2023-09-19T09:56:55;17.50;84.90
19878;DHT22;10101;52.204;9.910;2023-09-19T09:59:45;17.30;99.90
19878;DHT22;10101;52.204;9.910;2023-09-19T10:02:17;17.30;99.90
19878;DHT22;10101;52.204;9.910;2023-09-19T10:04:55;17.40;99.90
19878;DHT22;10101;52.204;9.910;2023-09-19T10:07:41;17.60;99.90
19878;DHT22;10101;52.204;9.910;2023-09-19T10:10:13;17.60;99.90
19878;DHT22;10101;52.204;9.910;2023-09-19T10:12:47;17.60;99.90
19878;DHT22;10101;52.204;9.910;2023-09-19T10:15:17;17.60;99.90
19878;DHT22;10101;52.204;9.910;2023-09-19T10:17:46;17.60;99.90
19878;DHT22;10101;52.204;9.910;2023-09-19T10:20:15;17.60;99.90
19878;DHT22;10101;52.204;9.910;2023-09-19T10:23:00;17.70;1.00
19878;DHT22;10101;52.204;9.910;2023-09-19T10:25:28;17.80;99.90
19878;DHT22;10101;52.204;9.910;2023-09-19T10:27:56;18.00;99.90
19878;DHT22;10101;52.204;9.910;2023-09-19T10:30:25;17.70;99.90
19878;DHT22;10101;52.204;9.910;2023-09-19T10:32:59;17.60;99.90
19878;DHT22;10101;52.204;9.910;2023-09-19T10:35:26;17.80;99.90
19878;DHT22;10101;52.204;9.910;2023-09-19T10:37:57;17.90;99.90
19878;DHT22;10101;52.204;9.910;2023-09-19T10:40:24;18.20;99.90
19878;DHT22;10101;52.204;9.910;2023-09-19T10:43:01;18.00;99.90
19878;DHT22;10101;52.204;9.910;2023-09-19T10:45:31;18.00;99.90
19878;DHT22;10101;52.204;9.910;2023-09-19T10:47:59;18.00;99.90
19878;DHT22;10101;52.204;9.910;2023-09-19T10:50:26;18.00;99.90
19878;DHT22;10101;52.204;9.910;2023-09-19T10:53:00;17.80;99.90
19878;DHT22;10101;52.204;9.910;2023-09-19T10:55:31;18.00;99.90
19878;DHT22;10101;52.204;9.910;2023-09-19T10:57:59;18.10;99.90
19878;DHT22;10101;52.204;9.910;2023-09-19T11:00:31;18.10;99.90
19878;DHT22;10101;52.204;9.910;2023-09-19T11:03:20;18.10;99.90
19878;DHT22;10101;52.204;9.910;2023-09-19T11:06:06;18.20;99.90
19878;DHT22;10101;52.204;9.910;2023-09-19T11:09:05;18.20;99.90
19878;DHT22;10101;52.204;9.910;2023-09-19T11:11:49;18.30;99.90
19878;DHT22;10101;52.204;9.910;2023-09-19T11:14:42;18.30;99.90
19878;DHT22;10101;52.204;9.910;2023-09-19T11:17:42;18.20;99.90
19878;DHT22;10101;52.204;9.910;2023-09-19T11:20:19;18.20;99.90
19878;DHT22;10101;52.204;9.910;2023-09-19T11:23:18;18.20;99.90
19878;DHT22;10101;52.204;9.910;2023-09-19T11:25:48;18.20;99.90
19878;DHT22;10101;52.204;9.910;2023-09-19T11:28:34;18.40;99.90
19878;DHT22;10101;52.204;9.910;2023-09-19T11:34:44;18.20;1.00
19878;DHT22;10101;52.204;9.910;2023-09-19T11:40:45;18.50;99.90
19878;DHT22;10101;52.204;9.910;2023-09-19T11:43:32;18.50;1.00
19878;DHT22;10101;52.204;9.910;2023-09-19T11:46:06;18.60;1.00
19878;DHT22;10101;52.204;9.910;2023-09-19T11:48:34;18.70;1.00
19878;DHT22;10101;52.204;9.910;2023-09-19T11:51:11;18.50;1.00
19878;DHT22;10101;52.204;9.910;2023-09-19T11:53:45;18.60;99.90
19878;DHT22;10101;52.204;9.910;2023-09-19T11:56:14;18.60;99.90
19878;DHT22;10101;52.204;9.910;2023-09-19T11:58:43;18.70;99.90
19878;DHT22;10101;52.204;9.910;2023-09-19T12:01:13;18.50;1.00
19878;DHT22;10101;52.204;9.910;2023-09-19T12:03:46;18.50;1.00
19878;DHT22;10101;52.204;9.910;2023-09-19T12:06:15;18.60;1.00
19878;DHT22;10101;52.204;9.910;2023-09-19T12:08:42;18.60;1.00
19878;DHT22;10101;52.204;9.910;2023-09-19T12:11:13;18.60;1.00
19878;DHT22;10101;52.204;9.910;2023-09-19T12:13:45;18.70;1.00
19878;DHT22;10101;52.204;9.910;2023-09-19T12:16:15;19.00;1.00
19878;DHT22;10101;52.204;9.910;2023-09-19T12:18:43;19.00;1.00
19878;DHT22;10101;52.204;9.910;2023-09-19T12:21:23;19.10;1.00
19878;DHT22;10101;52.204;9.910;2023-09-19T12:24:04;18.90;1.00
19878;DHT22;10101;52.204;9.910;2023-09-19T12:26:39;18.60;1.00
19878;DHT22;10101;52.204;9.910;2023-09-19T12:29:14;18.80;1.00
19878;DHT22;10101;52.204;9.910;2023-09-19T12:31:50;19.00;1.00
19878;DHT22;10101;52.204;9.910;2023-09-19T12:34:20;18.90;1.00
19878;DHT22;10101;52.204;9.910;2023-09-19T12:36:48;18.80;1.00
19878;DHT22;10101;52.204;9.910;2023-09-19T12:39:24;18.60;1.00
19878;DHT22;10101;52.204;9.910;2023-09-19T12:41:52;18.70;1.00
19878;DHT22;10101;52.204;9.910;2023-09-19T12:44:20;18.70;1.00
19878;DHT22;10101;52.204;9.910;2023-09-19T12:46:48;18.60;1.00
19878;DHT22;10101;52.204;9.910;2023-09-19T12:49:16;18.60;1.00
19878;DHT22;10101;52.204;9.910;2023-09-19T12:51:44;18.70;1.00
19878;DHT22;10101;52.204;9.910;2023-09-19T12:54:13;18.70;1.00
19878;DHT22;10101;52.204;9.910;2023-09-19T12:56:42;18.70;1.00
19878;DHT22;10101;52.204;9.910;2023-09-19T12:59:12;18.80;1.00
19878;DHT22;10101;52.204;9.910;2023-09-19T13:01:40;18.80;1.00
19878;DHT22;10101;52.204;9.910;2023-09-19T13:04:14;18.70;1.00
19878;DHT22;10101;52.204;9.910;2023-09-19T13:06:43;18.70;1.00
19878;DHT22;10101;52.204;9.910;2023-09-19T13:09:13;18.70;1.00
19878;DHT22;10101;52.204;9.910;2023-09-19T13:11:40;18.80;1.00
19878;DHT22;10101;52.204;9.910;2023-09-19T13:14:14;18.70;1.00
19878;DHT22;10101;52.204;9.910;2023-09-19T13:16:53;18.80;1.00
19878;DHT22;10101;52.204;9.910;2023-09-19T13:19:35;18.80;1.00
19878;DHT22;10101;52.204;9.910;2023-09-19T13:22:02;18.80;1.00
19878;DHT22;10101;52.204;9.910;2023-09-19T13:24:30;18.80;1.00
19878;DHT22;10101;52.204;9.910;2023-09-19T13:26:58;18.80;1.00
19878;DHT22;10101;52.204;9.910;2023-09-19T13:29:25;18.70;1.00
19878;DHT22;10101;52.204;9.910;2023-09-19T13:31:53;18.70;1.00
19878;DHT22;10101;52.204;9.910;2023-09-19T13:34:20;18.60;1.00
19878;DHT22;10101;52.204;9.910;2023-09-19T13:36:47;18.70;1.00
19878;DHT22;10101;52.204;9.910;2023-09-19T13:39:13;18.70;1.00
19878;DHT22;10101;52.204;9.910;2023-09-19T13:41:43;18.80;1.00
19878;DHT22;10101;52.204;9.910;2023-09-19T13:44:10;18.70;1.00
19878;DHT22;10101;52.204;9.910;2023-09-19T13:46:37;18.90;1.00
19878;DHT22;10101;52.204;9.910;2023-09-19T13:49:04;18.90;1.00
19878;DHT22;10101;52.204;9.910;2023-09-19T13:51:31;18.80;1.00
19878;DHT22;10101;52.204;9.910;2023-09-19T13:53:58;18.90;1.00
19878;DHT22;10101;52.204;9.910;2023-09-19T13:56:25;18.70;1.00
19878;DHT22;10101;52.204;9.910;2023-09-19T13:58:54;18.80;1.00
19878;DHT22;10101;52.204;9.910;2023-09-19T14:01:21;18.80;1.00
19878;DHT22;10101;52.204;9.910;2023-09-19T14:03:48;18.90;1.00
19878;DHT22;10101;52.204;9.910;2023-09-19T14:06:15;19.00;1.00
19878;DHT22;10101;52.204;9.910;2023-09-19T14:08:43;19.00;1.00
19878;DHT22;10101;52.204;9.910;2023-09-19T14:11:10;19.10;1.00
19878;DHT22;10101;52.204;9.910;2023-09-19T14:13:36;18.90;1.00
19878;DHT22;10101;52.204;9.910;2023-09-19T14:16:05;18.80;1.00
19878;DHT22;10101;52.204;9.910;2023-09-19T14:18:32;18.80;1.00
19878;DHT22;10101;52.204;9.910;2023-09-19T14:21:03;18.90;1.00
19878;DHT22;10101;52.204;9.910;2023-09-19T14:23:34;21.40;1.00
19878;DHT22;10101;52.204;9.910;2023-09-19T14:26:01;19.70;1.00
19878;DHT22;10101;52.204;9.910;2023-09-19T14:28:28;20.30;1.00
19878;DHT22;10101;52.204;9.910;2023-09-19T14:30:55;20.30;1.00
19878;DHT22;10101;52.204;9.910;2023-09-19T14:33:24;19.70;1.00
19878;DHT22;10101;52.204;9.910;2023-09-19T14:35:51;20.60;1.00
19878;DHT22;10101;52.204;9.910;2023-09-19T14:38:17;19.70;1.00
19878;DHT22;10101;52.204;9.910;2023-09-19T14:40:44;19.30;1.00
19878;DHT22;10101;52.204;9.910;2023-09-19T14:43:11;19.10;1.00
19878;DHT22;10101;52.204;9.910;2023-09-19T14:45:38;18.90;1.00
19878;DHT22;10101;52.204;9.910;2023-09-19T14:48:06;19.40;1.00
19878;DHT22;10101;52.204;9.910;2023-09-19T14:50:34;20.20;1.00
19878;DHT22;10101;52.204;9.910;2023-09-19T14:53:01;20.20;1.00
19878;DHT22;10101;52.204;9.910;2023-09-19T14:55:28;19.70;1.00
19878;DHT22;10101;52.204;9.910;2023-09-19T14:57:59;19.90;1.00
19878;DHT22;10101;52.204;9.910;2023-09-19T15:00:28;20.30;1.00
19878;DHT22;10101;52.204;9.910;2023-09-19T15:02:54;20.70;1.00
19878;DHT22;10101;52.204;9.910;2023-09-19T15:05:21;20.30;1.00
19878;DHT22;10101;52.204;9.910;2023-09-19T15:07:49;20.20;1.00
19878;DHT22;10101;52.204;9.910;2023-09-19T15:10:17;20.10;1.00
19878;DHT22;10101;52.204;9.910;2023-09-19T15:12:44;19.80;1.00
19878;DHT22;10101;52.204;9.910;2023-09-19T15:15:11;20.10;1.00
19878;DHT22;10101;52.204;9.910;2023-09-19T15:17:38;20.40;1.00
19878;DHT22;10101;52.204;9.910;2023-09-19T15:20:06;20.10;1.00
19878;DHT22;10101;52.204;9.910;2023-09-19T15:22:33;20.20;1.00
19878;DHT22;10101;52.204;9.910;2023-09-19T15:25:02;20.20;1.00
19878;DHT22;10101;52.204;9.910;2023-09-19T15:27:29;20.10;1.00
19878;DHT22;10101;52.204;9.910;2023-09-19T15:29:58;20.10;1.00
19878;DHT22;10101;52.204;9.910;2023-09-19T15:32:26;20.00;1.00
19878;DHT22;10101;52.204;9.910;2023-09-19T15:34:53;19.80;1.00
19878;DHT22;10101;52.204;9.910;2023-09-19T15:37:19;19.60;1.00
19878;DHT22;10101;52.204;9.910;2023-09-19T15:39:47;19.60;1.00
19878;DHT22;10101;52.204;9.910;2023-09-19T15:42:16;19.80;1.00
19878;DHT22;10101;52.204;9.910;2023-09-19T15:44:42;19.90;1.00
19878;DHT22;10101;52.204;9.910;2023-09-19T15:47:12;20.00;1.00
19878;DHT22;10101;52.204;9.910;2023-09-19T15:49:39;19.80;1.00
19878;DHT22;10101;52.204;9.910;2023-09-19T15:52:05;20.00;1.00
19878;DHT22;10101;52.204;9.910;2023-09-19T15:54:34;20.10;1.00
19878;DHT22;10101;52.204;9.910;2023-09-19T15:57:00;20.10;1.00
19878;DHT22;10101;52.204;9.910;2023-09-19T15:59:28;20.00;1.00
19878;DHT22;10101;52.204;9.910;2023-09-19T16:01:56;20.00;1.00
19878;DHT22;10101;52.204;9.910;2023-09-19T16:04:23;19.90;1.00